createdAt,value
2023-08-31T00:01:13.492Z,99167.56
2023-08-31T00:03:41.220Z,99178.37
2023-08-31T00:06:08.787Z,99173.16
2023-08-31T00:08:36.359Z,99176.09
2023-08-31T00:11:04.069Z,99173.16
2023-08-31T00:13:31.468Z,99175.56
2023-08-31T00:15:59.573Z,99173.38
2023-08-31T00:18:27.674Z,99173.50
2023-08-31T00:20:55.204Z,99173.69
2023-08-31T00:23:22.701Z,99173.56
2023-08-31T00:25:50.457Z,99172.06
2023-08-31T00:28:19.451Z,99172.75
2023-08-31T00:30:47.470Z,99170.97
2023-08-31T00:33:16.559Z,99179.88
2023-08-31T00:35:47.163Z,99176.00
2023-08-31T00:38:15.600Z,99177.00
2023-08-31T00:40:46.588Z,99183.19
2023-08-31T00:43:19.017Z,99183.09
2023-08-31T00:46:00.330Z,99178.25
2023-08-31T00:48:28.132Z,99186.94
2023-08-31T00:50:55.983Z,99180.66
2023-08-31T00:53:24.306Z,99181.53
2023-08-31T00:55:52.267Z,99178.63
2023-08-31T00:58:20.345Z,99188.22
2023-08-31T01:01:03.045Z,99183.69
2023-08-31T01:04:03.506Z,99186.53
2023-08-31T01:07:10.130Z,99191.16
2023-08-31T01:09:46.583Z,99191.31
2023-08-31T01:12:22.333Z,99190.22
2023-08-31T01:15:00.557Z,99195.19
2023-08-31T01:17:29.811Z,99193.06
2023-08-31T01:20:00.469Z,99197.47
2023-08-31T01:22:38.962Z,99196.38
2023-08-31T01:25:10.067Z,99193.81
2023-08-31T01:27:38.753Z,99207.47
2023-08-31T01:30:07.363Z,99206.81
2023-08-31T01:32:35.364Z,99209.69
2023-08-31T01:35:06.299Z,99208.06
2023-08-31T01:37:52.534Z,99202.38
2023-08-31T01:40:24.956Z,99204.94
2023-08-31T01:42:52.631Z,99202.94
2023-08-31T01:45:22.381Z,99195.88
2023-08-31T01:47:50.284Z,99203.94
2023-08-31T01:50:19.702Z,99206.50
2023-08-31T01:52:47.501Z,99193.25
2023-08-31T01:55:16.915Z,99208.25
2023-08-31T01:57:44.424Z,99203.38
2023-08-31T02:00:12.773Z,99206.00
2023-08-31T02:02:42.728Z,99204.84
2023-08-31T02:05:11.047Z,99202.03
2023-08-31T02:07:38.656Z,99203.81
2023-08-31T02:10:09.527Z,99202.03
2023-08-31T02:12:38.214Z,99207.66
2023-08-31T02:15:07.040Z,99202.38
2023-08-31T02:17:35.637Z,99201.28
2023-08-31T02:20:05.837Z,99209.13
2023-08-31T02:22:35.235Z,99203.25
2023-08-31T02:25:02.961Z,99199.94
2023-08-31T02:27:30.384Z,99209.44
2023-08-31T02:29:57.998Z,99216.78
2023-08-31T02:32:25.745Z,99220.41
2023-08-31T02:34:53.525Z,99222.41
2023-08-31T02:37:20.933Z,99216.78
2023-08-31T02:39:48.774Z,99213.28
2023-08-31T02:42:16.166Z,99215.81
2023-08-31T02:44:43.609Z,99223.91
2023-08-31T02:47:11.398Z,99223.97
2023-08-31T02:49:38.868Z,99223.31
2023-08-31T02:52:06.443Z,99219.69
2023-08-31T02:54:34.183Z,99222.19
2023-08-31T02:57:01.652Z,99216.19
2023-08-31T02:59:29.552Z,99222.19
2023-08-31T03:01:57.364Z,99216.91
2023-08-31T03:04:25.906Z,99214.69
2023-08-31T03:06:53.358Z,99211.31
2023-08-31T03:09:21.405Z,99207.91
2023-08-31T03:11:48.978Z,99216.56
2023-08-31T03:14:16.387Z,99211.75
2023-08-31T03:16:44.102Z,99209.16
2023-08-31T03:19:11.626Z,99213.25
2023-08-31T03:21:39.179Z,99214.44
2023-08-31T03:24:07.074Z,99214.69
2023-08-31T03:26:35.063Z,99213.12
2023-08-31T03:29:04.725Z,99219.66
2023-08-31T03:31:33.041Z,99221.56
2023-08-31T03:34:00.456Z,99232.72
2023-08-31T03:36:28.335Z,99221.81
2023-08-31T03:38:56.109Z,99223.78
2023-08-31T03:41:23.710Z,99233.00
2023-08-31T03:43:51.427Z,99233.91
2023-08-31T03:46:22.837Z,99228.16
2023-08-31T03:48:50.364Z,99229.13
2023-08-31T03:51:17.803Z,99237.19
2023-08-31T03:53:46.520Z,99233.88
2023-08-31T03:56:14.016Z,99229.75
2023-08-31T03:58:42.929Z,99238.69
2023-08-31T04:01:11.902Z,99234.28
2023-08-31T04:03:39.843Z,99230.00
2023-08-31T04:06:07.600Z,99234.56
2023-08-31T04:08:35.065Z,99241.31
2023-08-31T04:11:04.709Z,99242.31
2023-08-31T04:13:32.129Z,99243.50
2023-08-31T04:15:59.611Z,99247.13
2023-08-31T04:18:27.422Z,99247.91
2023-08-31T04:20:55.805Z,99252.13
2023-08-31T04:23:23.261Z,99257.34
2023-08-31T04:25:52.690Z,99252.00
2023-08-31T04:28:20.201Z,99252.00
2023-08-31T04:30:47.633Z,99249.91
2023-08-31T04:33:15.514Z,99267.16
2023-08-31T04:35:43.481Z,99274.16
2023-08-31T04:38:11.153Z,99268.03
2023-08-31T04:40:38.806Z,99276.72
2023-08-31T04:43:06.249Z,99281.78
2023-08-31T04:45:33.732Z,99280.09
2023-08-31T04:48:01.503Z,99278.50
2023-08-31T04:50:29.957Z,99286.94
2023-08-31T04:52:57.569Z,99281.75
2023-08-31T04:55:26.415Z,99277.47
2023-08-31T04:57:53.878Z,99283.91
2023-08-31T05:00:21.636Z,99293.84
2023-08-31T05:02:49.329Z,99296.22
2023-08-31T05:05:16.830Z,99290.94
2023-08-31T05:07:44.492Z,99299.09
2023-08-31T05:10:12.488Z,99314.25
2023-08-31T05:12:39.944Z,99308.91
2023-08-31T05:15:07.854Z,99316.41
2023-08-31T05:17:35.687Z,99319.56
2023-08-31T05:20:05.279Z,99318.47
2023-08-31T05:22:32.722Z,99323.03
2023-08-31T05:25:01.678Z,99325.31
2023-08-31T05:27:29.524Z,99328.53
2023-08-31T05:29:56.938Z,99327.50
2023-08-31T05:32:24.604Z,99328.53
2023-08-31T05:34:51.989Z,99334.25
2023-08-31T05:37:19.369Z,99336.19
2023-08-31T05:39:51.001Z,99342.47
2023-08-31T05:42:19.242Z,99345.41
2023-08-31T05:44:47.015Z,99345.19
2023-08-31T05:47:14.397Z,99355.75
2023-08-31T05:49:41.795Z,99357.12
2023-08-31T05:52:09.703Z,99357.00
2023-08-31T05:54:37.111Z,99356.47
2023-08-31T05:57:06.621Z,99360.59
2023-08-31T05:59:34.350Z,99364.31
2023-08-31T06:02:01.871Z,99366.59
2023-08-31T06:04:29.717Z,99374.78
2023-08-31T06:06:57.198Z,99383.09
2023-08-31T06:09:24.653Z,99387.44
2023-08-31T06:11:52.337Z,99389.28
2023-08-31T06:14:20.625Z,99388.38
2023-08-31T06:16:48.333Z,99391.31
2023-08-31T06:19:16.664Z,99392.09
2023-08-31T06:21:44.321Z,99393.13
2023-08-31T06:24:14.025Z,99400.38
2023-08-31T06:26:42.215Z,99397.88
2023-08-31T06:29:11.742Z,99393.97
2023-08-31T06:31:39.182Z,99404.09
2023-08-31T06:34:06.933Z,99406.28
2023-08-31T06:36:34.986Z,99406.72
2023-08-31T06:39:02.394Z,99407.34
2023-08-31T06:41:30.219Z,99407.81
2023-08-31T06:43:57.726Z,99402.69
2023-08-31T06:46:25.630Z,99404.56
2023-08-31T06:48:53.875Z,99405.97
2023-08-31T06:51:23.125Z,99406.63
2023-08-31T06:53:52.785Z,99415.34
2023-08-31T06:56:20.411Z,99408.00
2023-08-31T06:58:47.823Z,99413.44
2023-08-31T07:01:15.666Z,99424.31
2023-08-31T07:03:43.347Z,99424.50
2023-08-31T07:06:10.799Z,99426.34
2023-08-31T07:08:41.630Z,99430.09
2023-08-31T07:11:09.062Z,99434.91
2023-08-31T07:13:36.420Z,99438.66
2023-08-31T07:16:04.148Z,99447.03
2023-08-31T07:18:31.545Z,99448.09
2023-08-31T07:20:59.087Z,99442.16
2023-08-31T07:23:26.874Z,99448.66
2023-08-31T07:25:58.961Z,99441.50
2023-08-31T07:28:27.147Z,99437.84
2023-08-31T07:31:07.460Z,99449.56
2023-08-31T07:33:36.984Z,99444.69
2023-08-31T07:36:09.013Z,99454.34
2023-08-31T07:38:36.734Z,99453.31
2023-08-31T07:41:05.485Z,99458.13
2023-08-31T07:43:33.103Z,99461.72
2023-08-31T07:46:00.905Z,99458.28
2023-08-31T07:48:28.502Z,99457.63
2023-08-31T07:50:56.565Z,99465.69
2023-08-31T07:53:24.278Z,99463.25
2023-08-31T07:55:55.906Z,99458.00
2023-08-31T07:58:24.755Z,99463.16
2023-08-31T08:00:56.172Z,99463.06
2023-08-31T08:03:24.730Z,99465.56
2023-08-31T08:05:52.626Z,99457.72
2023-08-31T08:08:20.017Z,99471.00
2023-08-31T08:10:47.957Z,99467.19
2023-08-31T08:13:16.528Z,99478.25
2023-08-31T08:15:43.954Z,99474.72
2023-08-31T08:18:11.696Z,99476.88
2023-08-31T08:20:39.221Z,99473.69
2023-08-31T08:23:07.211Z,99475.94
2023-08-31T08:25:35.412Z,99480.38
2023-08-31T08:28:04.308Z,99486.94
2023-08-31T08:30:31.772Z,99479.25
2023-08-31T08:32:59.982Z,99482.50
2023-08-31T08:35:27.460Z,99482.28
2023-08-31T08:37:54.865Z,99480.75
2023-08-31T08:40:22.616Z,99485.25
2023-08-31T08:42:51.642Z,99484.09
2023-08-31T08:45:20.497Z,99486.75
2023-08-31T08:47:48.259Z,99482.87
2023-08-31T08:50:16.102Z,99493.22
2023-08-31T08:52:44.239Z,99492.19
2023-08-31T08:55:12.824Z,99489.50
2023-08-31T08:57:40.827Z,99496.81
2023-08-31T09:00:08.910Z,99490.09
2023-08-31T09:02:36.850Z,99495.59
2023-08-31T09:05:04.853Z,99498.84
2023-08-31T09:07:36.399Z,99495.19
2023-08-31T09:10:05.362Z,99492.94
2023-08-31T09:12:33.360Z,99510.38
2023-08-31T09:15:07.831Z,99509.75
2023-08-31T09:17:40.784Z,99507.84
2023-08-31T09:20:10.109Z,99515.00
2023-08-31T09:22:37.915Z,99514.28
2023-08-31T09:25:09.874Z,99515.31
2023-08-31T09:27:41.585Z,99515.06
2023-08-31T09:30:09.512Z,99510.66
2023-08-31T09:32:37.416Z,99511.66
2023-08-31T09:35:17.793Z,99521.84
2023-08-31T09:37:58.301Z,99516.13
2023-08-31T09:40:26.120Z,99513.44
2023-08-31T09:42:53.689Z,99523.28
2023-08-31T09:45:44.775Z,99514.34
2023-08-31T09:48:16.367Z,99518.59
2023-08-31T09:50:47.121Z,99523.28
2023-08-31T09:53:17.446Z,99524.78
2023-08-31T09:55:45.324Z,99528.84
2023-08-31T09:58:16.598Z,99535.66
2023-08-31T10:00:45.050Z,99531.50
2023-08-31T10:03:19.030Z,99535.66
2023-08-31T10:05:48.798Z,99533.09
2023-08-31T10:08:17.036Z,99534.81
2023-08-31T10:10:45.188Z,99537.16
2023-08-31T10:13:13.646Z,99546.53
2023-08-31T10:15:43.004Z,99551.50
2023-08-31T10:18:10.466Z,99551.44
2023-08-31T10:20:37.948Z,99556.75
2023-08-31T10:23:06.815Z,99555.78
2023-08-31T10:26:00.986Z,99552.31
2023-08-31T10:28:29.575Z,99548.59
2023-08-31T10:31:08.422Z,99557.06
2023-08-31T10:33:40.373Z,99556.41
2023-08-31T10:36:15.647Z,99566.06
2023-08-31T10:39:00.687Z,99571.25
2023-08-31T10:41:39.880Z,99569.44
2023-08-31T10:44:20.974Z,99568.28
2023-08-31T10:46:49.864Z,99572.09
2023-08-31T10:49:20.079Z,99575.31
2023-08-31T10:51:55.595Z,99575.56
2023-08-31T10:54:36.700Z,99573.94
2023-08-31T10:57:08.306Z,99575.16
2023-08-31T10:59:46.517Z,99571.44
2023-08-31T11:02:52.624Z,99570.84
2023-08-31T11:05:23.511Z,99581.53
2023-08-31T11:07:54.290Z,99584.06
2023-08-31T11:10:29.123Z,99581.97
2023-08-31T11:12:58.488Z,99588.63
2023-08-31T11:15:27.694Z,99589.72
2023-08-31T11:17:56.191Z,99595.22
2023-08-31T11:20:25.112Z,99591.59
2023-08-31T11:22:55.814Z,99586.94
2023-08-31T11:25:25.367Z,99595.69
2023-08-31T11:27:57.380Z,99601.75
2023-08-31T11:30:26.776Z,99588.81
2023-08-31T11:32:55.027Z,99582.75
2023-08-31T11:35:24.278Z,99586.50
2023-08-31T11:37:56.471Z,99581.69
2023-08-31T11:40:24.352Z,99587.03
2023-08-31T11:42:52.841Z,99587.53
2023-08-31T11:45:21.837Z,99589.03
2023-08-31T11:47:50.694Z,99595.03
2023-08-31T11:50:18.721Z,99592.25
2023-08-31T11:52:46.283Z,99587.22
2023-08-31T11:55:16.036Z,99587.16
2023-08-31T11:57:51.204Z,99586.25
2023-08-31T12:00:23.432Z,99589.50
2023-08-31T12:03:00.537Z,99589.91
2023-08-31T12:05:29.219Z,99583.91
2023-08-31T12:07:57.322Z,99580.28
2023-08-31T12:10:26.832Z,99577.72
2023-08-31T12:12:56.681Z,99588.81
2023-08-31T12:15:24.431Z,99586.25
2023-08-31T12:17:56.385Z,99578.16
2023-08-31T12:20:28.040Z,99585.22
2023-08-31T12:22:55.584Z,99584.31
2023-08-31T12:25:23.315Z,99582.19
2023-08-31T12:27:51.283Z,99582.72
2023-08-31T12:30:18.809Z,99579.19
2023-08-31T12:32:46.292Z,99582.37
2023-08-31T12:35:15.477Z,99584.50
2023-08-31T12:37:43.170Z,99581.53
2023-08-31T12:40:11.302Z,99585.06
2023-08-31T12:42:39.019Z,99576.41
2023-08-31T12:45:07.001Z,99584.97
2023-08-31T12:47:35.821Z,99580.25
2023-08-31T12:50:04.374Z,99580.47
2023-08-31T12:52:31.832Z,99582.94
2023-08-31T12:54:59.260Z,99579.41
2023-08-31T12:57:27.002Z,99572.03
2023-08-31T12:59:54.407Z,99576.69
2023-08-31T13:02:21.921Z,99581.69
2023-08-31T13:04:50.939Z,99579.22
2023-08-31T13:07:18.638Z,99582.97
2023-08-31T13:09:47.331Z,99583.03
2023-08-31T13:12:16.784Z,99580.63
2023-08-31T13:14:47.588Z,99584.03
2023-08-31T13:17:15.344Z,99576.13
2023-08-31T13:19:43.063Z,99568.56
2023-08-31T13:22:16.357Z,99573.87
2023-08-31T13:24:44.162Z,99581.81
2023-08-31T13:27:11.893Z,99568.97
2023-08-31T13:29:39.325Z,99578.81
2023-08-31T13:32:07.109Z,99582.44
2023-08-31T13:34:35.123Z,99577.31
2023-08-31T13:37:05.069Z,99572.72
2023-08-31T13:39:36.774Z,99574.31
2023-08-31T13:42:05.054Z,99573.34
2023-08-31T13:44:32.924Z,99584.75
2023-08-31T13:47:00.592Z,99572.28
2023-08-31T13:49:29.028Z,99575.38
2023-08-31T13:51:56.930Z,99590.31
2023-08-31T13:54:24.415Z,99580.09
2023-08-31T13:56:52.609Z,99578.81
2023-08-31T13:59:20.316Z,99584.78
2023-08-31T14:01:47.788Z,99583.28
2023-08-31T14:04:15.556Z,99591.38
2023-08-31T14:06:43.034Z,99591.91
2023-08-31T14:09:10.485Z,99592.47
2023-08-31T14:11:38.252Z,99588.50
2023-08-31T14:14:15.845Z,99599.31
2023-08-31T14:16:43.666Z,99600.00
2023-08-31T14:19:12.354Z,99594.12
2023-08-31T14:21:39.912Z,99595.44
2023-08-31T14:24:08.114Z,99605.34
2023-08-31T14:26:35.584Z,99596.50
2023-08-31T14:29:03.102Z,99606.72
2023-08-31T14:31:30.842Z,99600.50
2023-08-31T14:33:58.262Z,99602.88
2023-08-31T14:36:27.172Z,99604.25
2023-08-31T14:38:55.086Z,99608.94
2023-08-31T14:41:23.207Z,99606.63
2023-08-31T14:43:54.123Z,99606.94
2023-08-31T14:46:25.337Z,99607.88
2023-08-31T14:48:54.166Z,99605.00
2023-08-31T14:51:22.579Z,99611.09
2023-08-31T14:53:50.018Z,99609.59
2023-08-31T14:56:17.402Z,99614.59
2023-08-31T14:58:45.083Z,99609.44
2023-08-31T15:01:12.641Z,99615.78
2023-08-31T15:03:40.152Z,99608.34
2023-08-31T15:06:07.869Z,99615.84
2023-08-31T15:08:40.804Z,99624.78
2023-08-31T15:11:09.240Z,99614.13
2023-08-31T15:13:36.721Z,99617.97
2023-08-31T15:16:04.242Z,99621.41
2023-08-31T15:18:32.107Z,99623.00
2023-08-31T15:20:59.607Z,99627.75
2023-08-31T15:23:27.309Z,99620.31
2023-08-31T15:26:05.173Z,99631.16
2023-08-31T15:28:32.609Z,99634.19
2023-08-31T15:31:00.393Z,99631.47
2023-08-31T15:33:28.650Z,99632.59
2023-08-31T15:36:09.587Z,99631.62
2023-08-31T15:38:38.357Z,99638.03
2023-08-31T15:41:07.999Z,99629.81
2023-08-31T15:43:38.049Z,99636.31
2023-08-31T15:46:05.821Z,99629.47
2023-08-31T15:48:33.238Z,99644.16
2023-08-31T15:51:00.921Z,99641.84
2023-08-31T15:53:29.380Z,99640.81
2023-08-31T15:55:57.048Z,99639.28
2023-08-31T15:58:27.595Z,99635.00
2023-08-31T16:01:05.620Z,99641.38
2023-08-31T16:03:35.332Z,99643.03
2023-08-31T16:06:05.359Z,99643.87
2023-08-31T16:08:33.154Z,99644.34
2023-08-31T16:11:04.654Z,99643.87
2023-08-31T16:13:32.526Z,99644.09
2023-08-31T16:16:00.193Z,99639.91
2023-08-31T16:18:28.055Z,99642.06
2023-08-31T16:20:55.438Z,99646.03
2023-08-31T16:23:25.592Z,99650.09
2023-08-31T16:25:53.223Z,99644.56
2023-08-31T16:28:20.971Z,99639.66
2023-08-31T16:30:48.744Z,99645.63
2023-08-31T16:33:16.550Z,99656.00
2023-08-31T16:35:44.135Z,99660.88
2023-08-31T16:38:12.208Z,99659.44
2023-08-31T16:40:40.174Z,99659.00
2023-08-31T16:43:07.590Z,99661.66
2023-08-31T16:45:35.285Z,99657.50
2023-08-31T16:48:03.176Z,99668.44
2023-08-31T16:50:35.297Z,99665.84
2023-08-31T16:53:04.329Z,99669.50
2023-08-31T16:55:32.184Z,99668.63
2023-08-31T16:58:00.047Z,99679.16
2023-08-31T17:00:27.830Z,99671.78
2023-08-31T17:02:55.633Z,99673.13
2023-08-31T17:05:23.230Z,99671.59
2023-08-31T17:07:50.964Z,99681.66
2023-08-31T17:10:18.515Z,99686.50
2023-08-31T17:12:46.401Z,99686.88
2023-08-31T17:15:14.441Z,99693.44
2023-08-31T17:17:45.576Z,99693.81
2023-08-31T17:20:19.399Z,99708.38
2023-08-31T17:22:47.619Z,99711.66
2023-08-31T17:25:15.243Z,99708.00
2023-08-31T17:27:42.983Z,99711.75
2023-08-31T17:30:10.660Z,99716.78
2023-08-31T17:32:38.425Z,99724.66
2023-08-31T17:35:07.483Z,99719.59
2023-08-31T17:37:35.434Z,99723.75
2023-08-31T17:40:09.241Z,99725.22
2023-08-31T17:42:38.322Z,99725.47
2023-08-31T17:45:06.197Z,99724.88
2023-08-31T17:47:33.780Z,99728.06
2023-08-31T17:50:01.789Z,99730.19
2023-08-31T17:52:29.438Z,99739.34
2023-08-31T17:54:56.946Z,99747.91
2023-08-31T17:57:29.242Z,99744.22
2023-08-31T17:59:56.661Z,99744.91
2023-08-31T18:02:24.168Z,99759.19
2023-08-31T18:04:52.374Z,99762.31
2023-08-31T18:07:19.897Z,99771.53
2023-08-31T18:09:47.386Z,99772.78
2023-08-31T18:12:15.232Z,99776.03
2023-08-31T18:14:44.702Z,99784.09
2023-08-31T18:17:13.249Z,99784.78
2023-08-31T18:19:40.987Z,99790.31
2023-08-31T18:22:08.409Z,99788.91
2023-08-31T18:24:37.865Z,99790.16
2023-08-31T18:27:11.055Z,99789.00
2023-08-31T18:29:38.695Z,99792.53
2023-08-31T18:32:06.792Z,99795.41
2023-08-31T18:34:34.306Z,99801.19
2023-08-31T18:37:01.822Z,99800.16
2023-08-31T18:39:29.532Z,99809.34
2023-08-31T18:41:57.489Z,99808.09
2023-08-31T18:44:25.460Z,99812.47
2023-08-31T18:46:53.199Z,99817.91
2023-08-31T18:49:20.716Z,99823.59
2023-08-31T18:51:48.740Z,99821.56
2023-08-31T18:54:16.833Z,99818.69
2023-08-31T18:56:44.265Z,99827.06
2023-08-31T18:59:12.006Z,99822.53
2023-08-31T19:01:39.849Z,99825.19
2023-08-31T19:04:07.389Z,99826.47
2023-08-31T19:06:34.895Z,99836.59
2023-08-31T19:09:04.655Z,99839.94
2023-08-31T19:11:32.205Z,99836.62
2023-08-31T19:13:59.669Z,99842.53
2023-08-31T19:16:27.391Z,99847.75
2023-08-31T19:18:55.138Z,99860.28
2023-08-31T19:21:24.514Z,99856.16
2023-08-31T19:23:52.274Z,99866.34
2023-08-31T19:26:19.806Z,99865.13
2023-08-31T19:28:47.297Z,99866.94
2023-08-31T19:31:14.957Z,99868.00
2023-08-31T19:33:42.409Z,99872.81
2023-08-31T19:36:11.233Z,99872.03
2023-08-31T19:38:40.666Z,99872.41
2023-08-31T19:41:08.111Z,99876.97
2023-08-31T19:43:35.554Z,99873.09
2023-08-31T19:46:03.951Z,99880.75
2023-08-31T19:48:32.841Z,99877.50
2023-08-31T19:51:09.714Z,99881.59
2023-08-31T19:53:37.619Z,99888.16
2023-08-31T19:56:05.958Z,99886.41
2023-08-31T19:58:35.520Z,99884.97
2023-08-31T20:01:03.673Z,99887.59
2023-08-31T20:03:37.119Z,99879.84
2023-08-31T20:06:08.431Z,99878.50
2023-08-31T20:08:38.182Z,99879.63
2023-08-31T20:11:06.306Z,99880.47
2023-08-31T20:13:33.813Z,99877.91
2023-08-31T20:16:04.239Z,99873.13
2023-08-31T20:18:32.140Z,99876.00
2023-08-31T20:20:59.615Z,99876.97
2023-08-31T20:23:27.297Z,99883.09
2023-08-31T20:25:54.745Z,99881.63
2023-08-31T20:28:22.255Z,99887.88
2023-08-31T20:30:50.095Z,99892.53
2023-08-31T20:33:17.822Z,99899.94
2023-08-31T20:35:45.308Z,99897.34
2023-08-31T20:38:13.749Z,99898.22
2023-08-31T20:40:41.897Z,99904.84
2023-08-31T20:43:09.387Z,99903.75
2023-08-31T20:45:39.477Z,99903.88
2023-08-31T20:48:10.373Z,99910.88
2023-08-31T20:50:38.767Z,99900.91
2023-08-31T20:53:06.444Z,99900.91
2023-08-31T20:55:33.961Z,99900.03
2023-08-31T20:58:01.665Z,99902.06
2023-08-31T21:00:29.117Z,99912.53
2023-08-31T21:02:56.676Z,99905.25
2023-08-31T21:05:24.391Z,99903.44
2023-08-31T21:07:51.833Z,99911.22
2023-08-31T21:10:19.524Z,99915.28
2023-08-31T21:12:47.365Z,99918.72
2023-08-31T21:15:14.773Z,99925.41
2023-08-31T21:17:42.514Z,99932.37
2023-08-31T21:20:10.553Z,99920.13
2023-08-31T21:22:38.150Z,99931.47
2023-08-31T21:25:06.108Z,99933.19
2023-08-31T21:27:33.819Z,99929.84
2023-08-31T21:30:01.286Z,99938.53
2023-08-31T21:32:28.707Z,99935.03
2023-08-31T21:34:56.434Z,99935.03
2023-08-31T21:37:23.830Z,99938.25
2023-08-31T21:39:51.275Z,99941.41
2023-08-31T21:42:19.003Z,99938.13
2023-08-31T21:44:46.440Z,99938.13
2023-08-31T21:47:13.824Z,99946.28
2023-08-31T21:49:41.535Z,99940.22
2023-08-31T21:52:09.030Z,99947.19
2023-08-31T21:54:36.496Z,99939.06
2023-08-31T21:57:05.602Z,99951.47
2023-08-31T21:59:33.031Z,99952.47
2023-08-31T22:02:00.662Z,99955.87
2023-08-31T22:04:29.065Z,99951.31
2023-08-31T22:06:57.180Z,99962.84
2023-08-31T22:09:24.969Z,99962.03
2023-08-31T22:11:52.751Z,99954.09
2023-08-31T22:14:20.463Z,99963.97
2023-08-31T22:16:48.452Z,99970.87
2023-08-31T22:19:16.605Z,99970.69
2023-08-31T22:21:44.727Z,99971.81
2023-08-31T22:24:12.284Z,99975.97
2023-08-31T22:26:40.046Z,99973.22
2023-08-31T22:29:07.592Z,99968.00
2023-08-31T22:31:35.049Z,99971.56
2023-08-31T22:34:03.840Z,99964.25
2023-08-31T22:36:31.495Z,99961.09
2023-08-31T22:38:59.960Z,99972.25
2023-08-31T22:41:27.739Z,99972.72
2023-08-31T22:43:56.180Z,99969.53
2023-08-31T22:46:23.706Z,99972.97
2023-08-31T22:48:51.419Z,99976.38
2023-08-31T22:51:18.860Z,99967.75
2023-08-31T22:53:46.302Z,99971.44
2023-08-31T22:56:14.093Z,99972.13
2023-08-31T22:58:41.556Z,99972.06
2023-08-31T23:01:09.078Z,99982.47
2023-08-31T23:03:36.795Z,99978.13
2023-08-31T23:06:04.556Z,99971.16
2023-08-31T23:08:31.952Z,99972.97
2023-08-31T23:11:01.080Z,99973.94
2023-08-31T23:13:28.954Z,99976.09
2023-08-31T23:15:56.428Z,99978.31
2023-08-31T23:18:24.792Z,99969.72
2023-08-31T23:20:52.195Z,99971.19
2023-08-31T23:23:19.629Z,99969.53
2023-08-31T23:25:47.376Z,99971.97
2023-08-31T23:28:15.096Z,99969.13
2023-08-31T23:30:42.756Z,99981.31
2023-08-31T23:33:11.320Z,99977.78
2023-08-31T23:35:38.797Z,99983.03
2023-08-31T23:38:08.384Z,99984.94
2023-08-31T23:40:36.195Z,99980.19
2023-08-31T23:43:04.067Z,99979.94
2023-08-31T23:45:31.948Z,99990.28
2023-08-31T23:47:59.914Z,99989.00
2023-08-31T23:50:27.667Z,99992.38
2023-08-31T23:52:55.182Z,99995.31
2023-08-31T23:55:22.890Z,99998.47
2023-08-31T23:57:50.370Z,100002.87
